Time;durP1;ratioP1;P1;durP2;ratioP2;P2;SDS_P1;SDS_P2;PMS_P1;PMS_P2;Temp;Humidity;BMP_temperature;BMP_pressure;BME280_temperature;BME280_humidity;BME280_pressure;Samples;Min_cycle;Max_cycle;Signal;HPM_P1;HPM_P2
2021/11/11 00:05:57;;;;;;;47.90;28.80;;;;;;;1.60;76.83;100359.58;417165;1313;142578;-62
2021/11/11 00:16:02;;;;;;;44.10;27.70;;;;;;;1.39;76.41;100350.55;429054;1313;143177;-61
2021/11/11 00:26:09;;;;;;;39.60;24.80;;;;;;;1.26;76.58;100347.63;434368;1313;242651;-62
2021/11/11 00:36:15;;;;;;;36.50;24.70;;;;;;;1.24;76.59;100364.36;431283;1315;141702;-63
2021/11/11 00:46:22;;;;;;;33.10;21.20;;;;;;;1.24;77.08;100364.89;434617;1313;142118;-63
2021/11/11 00:56:28;;;;;;;37.50;22.90;;;;;;;1.27;77.42;100367.10;433379;1312;141898;-63
2021/11/11 01:06:34;;;;;;;31.10;20.40;;;;;;;1.24;77.58;100356.45;434677;1312;142186;-63
2021/11/11 01:16:41;;;;;;;29.80;23.00;;;;;;;1.24;77.77;100344.36;433672;1312;141562;-62
2021/11/11 01:26:47;;;;;;;28.10;19.30;;;;;;;1.21;77.62;100337.33;432496;1311;142277;-63
2021/11/11 01:36:53;;;;;;;26.50;19.30;;;;;;;1.17;77.64;100336.02;431003;1313;142986;-62
2021/11/11 01:46:59;;;;;;;29.50;20.00;;;;;;;1.15;77.78;100333.45;435199;1311;141721;-61
2021/11/11 01:57:06;;;;;;;34.30;20.80;;;;;;;1.16;78.05;100337.23;430466;1314;141832;-62
2021/11/11 02:07:13;;;;;;;27.00;19.20;;;;;;;1.13;77.86;100338.13;433537;1313;141770;-63
2021/11/11 02:17:27;;;;;;;29.80;17.40;;;;;;;1.13;78.18;100340.38;432994;1313;142257;-61
2021/11/11 02:27:34;;;;;;;24.20;16.30;;;;;;;1.13;78.31;100330.89;435217;1313;142283;-61
2021/11/11 02:37:40;;;;;;;25.90;17.60;;;;;;;1.11;78.34;100326.77;434360;1313;144070;-62
2021/11/11 02:47:48;;;;;;;27.00;19.20;;;;;;;1.11;78.44;100325.05;424527;1313;143452;-61
2021/11/11 02:57:53;;;;;;;;;;;;;;;1.07;78.29;100319.07;434519;1313;143157;-62
2021/11/11 03:07:59;;;;;;;22.50;15.40;;;;;;;1.05;78.53;100309.09;435040;1312;128056;-62
2021/11/11 03:18:05;;;;;;;28.10;17.70;;;;;;;1.00;78.35;100305.02;432440;1313;142285;-62
2021/11/11 03:28:11;;;;;;;20.70;16.40;;;;;;;0.92;78.09;100297.20;434056;1311;141823;-63
2021/11/11 03:38:18;;;;;;;25.50;17.80;;;;;;;0.84;78.02;100294.86;423428;1313;141621;-62
2021/11/11 03:48:25;;;;;;;24.20;16.60;;;;;;;0.85;78.54;100287.10;433968;1313;142529;-63
2021/11/11 03:58:31;;;;;;;25.00;16.40;;;;;;;0.88;78.50;100291.91;431917;1311;142119;-63
2021/11/11 04:08:38;;;;;;;29.90;17.50;;;;;;;0.82;78.38;100284.55;433526;1312;142505;-62
2021/11/11 04:18:44;;;;;;;24.40;16.00;;;;;;;0.79;78.41;100290.45;434650;1312;143017;-63
2021/11/11 04:28:53;;;;;;;24.70;17.00;;;;;;;0.79;78.46;100288.73;434821;1312;142874;-62
2021/11/11 04:39:12;;;;;;;22.00;16.90;;;;;;;0.74;78.43;100279.67;429714;1312;141619;-62
2021/11/11 04:59:59;;;;;;;24.10;17.80;;;;;;;0.52;78.17;100257.35;423484;1312;142389;-61
2021/11/11 05:10:06;;;;;;;25.20;17.60;;;;;;;0.44;78.49;100262.27;431196;1310;141713;-61
2021/11/11 05:20:14;;;;;;;27.30;18.10;;;;;;;0.34;78.81;100257.38;435154;1309;142158;-61
2021/11/11 05:30:21;;;;;;;28.00;19.60;;;;;;;0.18;78.73;100249.45;433044;1309;142908;-61
2021/11/11 05:40:27;;;;;;;30.90;18.60;;;;;;;0.03;78.89;100261.48;429229;1312;142494;-60
2021/11/11 05:50:33;;;;;;;26.10;16.80;;;;;;;-0.07;79.41;100254.34;432552;1309;144617;-60
2021/11/11 06:00:39;;;;;;;30.70;20.60;;;;;;;-0.15;79.36;100254.26;434087;1312;143685;-61
2021/11/11 06:10:45;;;;;;;26.50;18.90;;;;;;;-0.16;79.48;100267.19;433691;1311;142636;-61
2021/11/11 06:20:57;;;;;;;26.70;16.10;;;;;;;-0.06;79.35;100255.38;434129;1311;142288;-61
2021/11/11 06:31:03;;;;;;;29.70;21.20;;;;;;;0.13;79.22;100262.94;432226;1311;141230;-63
2021/11/11 06:41:09;;;;;;;26.80;20.50;;;;;;;0.53;79.14;100266.81;433909;1312;143297;-61
2021/11/11 06:51:15;;;;;;;24.70;17.30;;;;;;;1.06;79.01;100272.52;432657;1312;142660;-61
2021/11/11 07:01:22;;;;;;;23.20;17.30;;;;;;;2.91;78.12;100261.61;433569;1309;143386;-61
2021/11/11 07:11:28;;;;;;;26.80;21.30;;;;;;;5.43;75.59;100262.59;432845;1312;141583;-61
2021/11/11 07:21:34;;;;;;;28.00;23.40;;;;;;;8.39;73.25;100250.22;434928;1312;143081;-60
2021/11/11 07:31:40;;;;;;;22.10;19.70;;;;;;;10.97;69.35;100247.79;434754;1312;143542;-61
2021/11/11 07:41:46;;;;;;;23.10;20.70;;;;;;;12.64;66.00;100243.45;434069;1313;143411;-62
2021/11/11 07:51:51;;;;;;;23.40;17.60;;;;;;;14.51;62.89;100241.13;432927;1312;142241;-62
2021/11/11 08:01:58;;;;;;;16.90;15.20;;;;;;;16.71;59.87;100236.54;434477;1312;141152;-62
2021/11/11 08:12:05;;;;;;;18.70;17.00;;;;;;;18.05;56.20;100226.42;433294;1313;142530;-61
2021/11/11 08:22:11;;;;;;;18.70;16.70;;;;;;;19.07;53.94;100217.42;434123;1307;203850;-63
2021/11/11 08:32:19;;;;;;;17.60;14.90;;;;;;;20.11;51.46;100209.20;433473;1311;142581;-61
2021/11/11 08:42:25;;;;;;;18.10;16.50;;;;;;;21.37;48.84;100196.95;429007;1312;142341;-64
2021/11/11 08:52:32;;;;;;;19.00;15.80;;;;;;;22.22;47.12;100188.91;419221;1312;141350;-62
2021/11/11 09:02:39;;;;;;;18.60;16.00;;;;;;;23.73;44.65;100173.32;434425;1312;142009;-62
2021/11/11 09:12:45;;;;;;;18.10;16.60;;;;;;;23.99;42.96;100171.84;429570;1311;141453;-62
2021/11/11 09:22:53;;;;;;;17.90;16.30;;;;;;;22.82;42.01;100177.79;431955;1311;142273;-61
2021/11/11 09:32:59;;;;;;;17.30;15.70;;;;;;;17.88;43.97;100193.87;434248;1307;141523;-62
2021/11/11 09:43:05;;;;;;;19.30;17.30;;;;;;;14.67;46.94;100187.65;426810;1306;142956;-62
2021/11/11 09:53:12;;;;;;;20.90;18.50;;;;;;;12.95;49.06;100188.09;418986;1311;141044;-62
2021/11/11 10:03:19;;;;;;;24.80;20.50;;;;;;;11.92;51.02;100183.25;428439;1312;141649;-62
2021/11/11 10:13:25;;;;;;;21.10;18.80;;;;;;;10.91;52.52;100185.83;434852;1312;142269;-62
2021/11/11 10:23:32;;;;;;;23.10;18.20;;;;;;;10.25;54.18;100173.11;433365;1312;141893;-62
2021/11/11 10:33:38;;;;;;;21.50;18.80;;;;;;;9.94;55.32;100174.70;433930;1312;199568;-61
2021/11/11 10:43:44;;;;;;;22.70;16.10;;;;;;;9.86;55.89;100178.27;430792;1314;141362;-62
2021/11/11 10:54:07;;;;;;;24.30;18.20;;;;;;;9.55;56.83;100164.48;434265;1312;141799;-63
2021/11/11 11:04:29;;;;;;;24.10;18.60;;;;;;;9.41;57.14;100160.63;431904;1312;141914;-63
2021/11/11 11:14:41;;;;;;;19.90;17.80;;;;;;;9.21;57.49;100149.20;432699;1312;141299;-62
2021/11/11 11:24:47;;;;;;;24.60;20.50;;;;;;;9.02;58.11;100153.98;432307;1313;141712;-62
2021/11/11 11:34:56;;;;;;;23.70;18.50;;;;;;;9.04;58.72;100157.02;423807;1310;140953;-62
2021/11/11 11:45:06;;;;;;;24.80;18.30;;;;;;;8.91;59.38;100158.49;430739;1312;141083;-62
2021/11/11 11:55:15;;;;;;;21.20;18.00;;;;;;;8.85;59.50;100153.02;434985;1312;141720;-62
2021/11/11 12:05:31;;;;;;;34.30;20.90;;;;;;;8.80;60.03;100145.54;433318;1312;141728;-61
2021/11/11 12:15:51;;;;;;;21.10;17.40;;;;;;;8.71;60.55;100131.83;434819;1309;153891;-61
2021/11/11 12:47:04;;;;;;;21.00;16.70;;;;;;;8.69;61.16;100119.17;429505;1313;142521;-62
2021/11/11 12:57:11;;;;;;;21.40;16.90;;;;;;;8.69;61.73;100121.83;420146;1311;142428;-61
2021/11/11 13:07:33;;;;;;;27.00;20.10;;;;;;;8.64;61.70;100129.71;420342;1313;142923;-63
2021/11/11 13:17:48;;;;;;;22.40;18.00;;;;;;;8.45;61.82;100134.41;421260;1310;142274;-62
2021/11/11 13:28:46;;;;;;;25.90;21.10;;;;;;;8.32;62.33;100135.34;425837;1311;141317;-61
2021/11/11 16:26:13;;;;;;;53.40;40.00;;;;;;;3.62;71.52;100134.72;425342;1309;180505;-62
2021/11/11 16:36:21;;;;;;;62.20;44.00;;;;;;;3.39;72.20;100138.61;434084;1313;141991;-60
2021/11/11 16:46:27;;;;;;;86.20;60.70;;;;;;;3.18;72.66;100137.39;433278;1313;142502;-62
2021/11/11 16:56:33;;;;;;;103.90;68.40;;;;;;;2.98;73.01;100141.34;433911;1308;142187;-61
2021/11/11 17:06:39;;;;;;;99.10;67.00;;;;;;;2.72;73.42;100141.27;434136;1312;142531;-61
2021/11/11 17:16:50;;;;;;;106.40;65.10;;;;;;;2.48;73.70;100148.34;434612;1313;143676;-62
2021/11/11 17:27:20;;;;;;;88.20;56.60;;;;;;;2.33;73.93;100157.11;433967;1311;142762;-62
2021/11/11 17:37:26;;;;;;;82.40;56.90;;;;;;;2.20;74.49;100160.67;434318;1314;142138;-61
2021/11/11 17:47:35;;;;;;;104.10;60.40;;;;;;;2.02;74.07;100165.84;428314;1308;142475;-60
2021/11/11 17:57:43;;;;;;;94.10;62.10;;;;;;;1.81;74.21;100167.80;434593;1312;143883;-61
2021/11/11 18:07:55;;;;;;;98.50;59.40;;;;;;;1.64;74.33;100163.79;425143;1311;141626;-62
2021/11/11 18:18:03;;;;;;;115.30;75.90;;;;;;;1.44;74.34;100159.65;424676;1313;142569;-62
2021/11/11 18:28:10;;;;;;;101.50;67.00;;;;;;;1.25;74.41;100156.17;431948;1314;143527;-61
2021/11/11 18:38:19;;;;;;;98.80;68.00;;;;;;;1.07;74.48;100147.50;434839;1311;142257;-61
2021/11/11 18:48:28;;;;;;;113.60;68.20;;;;;;;0.91;74.62;100156.02;433947;1313;141771;-61
2021/11/11 18:58:36;;;;;;;113.50;73.90;;;;;;;0.80;74.85;100152.89;434805;1313;143713;-61
2021/11/11 19:08:50;;;;;;;105.70;69.10;;;;;;;0.66;74.88;100144.83;425518;1313;143208;-61
2021/11/11 19:18:59;;;;;;;108.50;70.10;;;;;;;0.55;75.37;100152.23;433571;1316;141618;-62
2021/11/11 19:29:05;;;;;;;108.90;71.00;;;;;;;0.43;75.59;100147.73;433516;1314;143122;-63
2021/11/11 19:39:22;;;;;;;136.10;91.80;;;;;;;0.35;75.91;100142.48;430907;1313;142386;-62
2021/11/11 20:00:17;;;;;;;126.20;87.10;;;;;;;0.18;76.35;100149.08;433404;1311;143734;-61
2021/11/11 20:10:29;;;;;;;124.70;88.00;;;;;;;0.08;76.44;100157.79;433909;1312;142127;-62
2021/11/11 20:20:59;;;;;;;121.90;80.40;;;;;;;-0.03;76.86;100155.34;433773;1312;155553;-62
2021/11/11 20:41:59;;;;;;;94.90;67.70;;;;;;;-0.18;77.14;100159.11;428280;1313;146356;-62
2021/11/11 21:02:33;;;;;;;89.10;60.60;;;;;;;-0.42;77.16;100161.77;432872;1313;142833;-61
2021/11/11 21:12:52;;;;;;;138.90;89.20;;;;;;;-0.43;77.57;100161.09;426056;1313;141833;-61
2021/11/11 21:22:58;;;;;;;130.60;81.30;;;;;;;-0.59;77.42;100168.97;434850;1310;143809;-61
2021/11/11 21:33:06;;;;;;;91.30;62.80;;;;;;;-0.70;77.72;100164.58;429470;1312;142267;-61
2021/11/11 21:43:31;;;;;;;112.60;74.20;;;;;;;-0.74;78.16;100162.23;420974;1312;141969;-61
2021/11/11 21:53:39;;;;;;;89.80;62.80;;;;;;;-0.82;78.29;100162.79;423973;1312;144471;-62
2021/11/11 22:24:36;;;;;;;98.00;59.60;;;;;;;-0.84;79.31;100166.94;429258;1312;142328;-58
2021/11/11 22:34:43;;;;;;;127.40;79.10;;;;;;;-0.72;79.42;100165.64;428917;1309;145568;-61
2021/11/11 22:44:49;;;;;;;117.10;76.40;;;;;;;-0.79;79.15;100166.73;426356;1312;144152;-61
2021/11/11 22:55:00;;;;;;;129.70;83.00;;;;;;;-0.95;79.33;100167.54;431446;1312;141989;-61
2021/11/11 23:05:24;;;;;;;114.20;75.40;;;;;;;-1.05;79.23;100157.83;427571;1312;142247;-62
2021/11/11 23:26:04;;;;;;;97.60;63.40;;;;;;;-1.17;79.18;100153.59;432955;1312;142631;-62
2021/11/11 23:36:11;;;;;;;107.20;68.20;;;;;;;-1.16;79.51;100151.18;434010;1309;142413;-62
2021/11/11 23:46:19;;;;;;;121.80;74.90;;;;;;;-1.14;79.78;100149.64;433308;1312;142070;-62
